sensor_id;sensor_type;location;lat;lon;timestamp;pressure;altitude;pressure_sealevel;temperature;humidity
58955;BME280;45815;52.334;5.024;2022-09-09T00:02:19;100746.97;;;16.09;100.00
58955;BME280;45815;52.334;5.024;2022-09-09T00:05:28;100753.16;;;16.07;100.00
58955;BME280;45815;52.334;5.024;2022-09-09T00:07:42;100746.94;;;16.11;100.00
58955;BME280;45815;52.334;5.024;2022-09-09T00:10:13;100747.88;;;16.02;100.00
58955;BME280;45815;52.334;5.024;2022-09-09T00:15:12;100732.91;;;15.99;100.00
58955;BME280;45815;52.334;5.024;2022-09-09T00:17:39;100734.66;;;15.97;100.00
58955;BME280;45815;52.334;5.024;2022-09-09T00:20:13;100734.66;;;15.97;100.00
58955;BME280;45815;52.334;5.024;2022-09-09T00:22:40;100729.34;;;15.99;100.00
58955;BME280;45815;52.334;5.024;2022-09-09T00:25:14;100732.00;;;15.99;100.00
58955;BME280;45815;52.334;5.024;2022-09-09T00:27:49;100732.88;;;16.01;100.00
58955;BME280;45815;52.334;5.024;2022-09-09T00:30:25;100727.56;;;16.01;100.00
58955;BME280;45815;52.334;5.024;2022-09-09T00:32:53;100728.47;;;16.00;100.00
58955;BME280;45815;52.334;5.024;2022-09-09T00:35:33;100727.56;;;16.02;100.00
58955;BME280;45815;52.334;5.024;2022-09-09T00:38:18;100731.16;;;15.97;100.00
58955;BME280;45815;52.334;5.024;2022-09-09T00:43:30;100733.78;;;15.98;100.00
58955;BME280;45815;52.334;5.024;2022-09-09T00:48:21;100735.56;;;15.95;100.00
58955;BME280;45815;52.334;5.024;2022-09-09T00:50:56;100729.41;;;15.91;100.00
58955;BME280;45815;52.334;5.024;2022-09-09T00:56:14;100739.13;;;15.88;100.00
58955;BME280;45815;52.334;5.024;2022-09-09T00:58:42;100728.56;;;15.81;100.00
58955;BME280;45815;52.334;5.024;2022-09-09T01:01:09;100732.97;;;15.79;100.00
58955;BME280;45815;52.334;5.024;2022-09-09T01:03:38;100730.31;;;15.79;100.00
58955;BME280;45815;52.334;5.024;2022-09-09T01:14:20;100730.38;;;15.64;100.00
58955;BME280;45815;52.334;5.024;2022-09-09T01:16:50;100727.69;;;15.66;100.00
58955;BME280;45815;52.334;5.024;2022-09-09T01:19:20;100729.47;;;15.63;100.00
58955;BME280;45815;52.334;5.024;2022-09-09T01:22:03;100726.84;;;15.59;100.00
58955;BME280;45815;52.334;5.024;2022-09-09T01:24:38;100728.63;;;15.54;100.00
58955;BME280;45815;52.334;5.024;2022-09-09T01:27:17;100738.34;;;15.49;100.00
58955;BME280;45815;52.334;5.024;2022-09-09T01:29:43;100745.41;;;15.47;100.00
58955;BME280;45815;52.334;5.024;2022-09-09T01:34:52;100725.16;;;15.39;100.00
58955;BME280;45815;52.334;5.024;2022-09-09T01:37:19;100736.63;;;15.37;100.00
58955;BME280;45815;52.334;5.024;2022-09-09T01:39:44;100720.75;;;15.34;100.00
58955;BME280;45815;52.334;5.024;2022-09-09T01:42:13;100719.00;;;15.28;100.00
58955;BME280;45815;52.334;5.024;2022-09-09T01:44:40;100725.19;;;15.24;100.00
58955;BME280;45815;52.334;5.024;2022-09-09T01:47:05;100726.94;;;15.24;100.00
58955;BME280;45815;52.334;5.024;2022-09-09T01:49:31;100727.84;;;15.23;100.00
58955;BME280;45815;52.334;5.024;2022-09-09T01:52:01;100725.19;;;15.18;100.00
58955;BME280;45815;52.334;5.024;2022-09-09T01:54:31;100728.72;;;15.12;100.00
58955;BME280;45815;52.334;5.024;2022-09-09T01:57:15;100721.66;;;15.10;100.00
58955;BME280;45815;52.334;5.024;2022-09-09T01:59:47;100719.03;;;15.07;100.00
58955;BME280;45815;52.334;5.024;2022-09-09T02:02:18;100719.91;;;15.03;100.00
58955;BME280;45815;52.334;5.024;2022-09-09T02:05:17;100721.69;;;15.01;100.00
58955;BME280;45815;52.334;5.024;2022-09-09T02:07:48;100716.38;;;15.01;100.00
58955;BME280;45815;52.334;5.024;2022-09-09T02:10:25;100712.88;;;15.02;100.00
58955;BME280;45815;52.334;5.024;2022-09-09T02:13:10;100714.66;;;15.01;100.00
58955;BME280;45815;52.334;5.024;2022-09-09T02:15:47;100709.34;;;15.03;100.00
58955;BME280;45815;52.334;5.024;2022-09-09T02:18:18;100714.63;;;15.04;100.00
58955;BME280;45815;52.334;5.024;2022-09-09T02:20:46;100714.63;;;15.09;100.00
58955;BME280;45815;52.334;5.024;2022-09-09T02:23:12;100708.47;;;15.11;100.00
58955;BME280;45815;52.334;5.024;2022-09-09T02:25:40;100704.06;;;15.09;100.00
58955;BME280;45815;52.334;5.024;2022-09-09T02:28:15;100706.69;;;15.15;100.00
58955;BME280;45815;52.334;5.024;2022-09-09T02:30:41;100705.78;;;15.19;100.00
58955;BME280;45815;52.334;5.024;2022-09-09T02:33:09;100700.50;;;15.19;100.00
58955;BME280;45815;52.334;5.024;2022-09-09T02:35:45;100702.28;;;15.20;100.00
58955;BME280;45815;52.334;5.024;2022-09-09T02:38:14;100707.53;;;15.22;100.00
58955;BME280;45815;52.334;5.024;2022-09-09T02:40:48;100707.56;;;15.29;100.00
58955;BME280;45815;52.334;5.024;2022-09-09T02:43:16;100699.59;;;15.32;100.00
58955;BME280;45815;52.334;5.024;2022-09-09T02:45:46;100705.78;;;15.31;100.00
58955;BME280;45815;52.334;5.024;2022-09-09T02:48:17;100706.66;;;15.30;100.00
58955;BME280;45815;52.334;5.024;2022-09-09T02:50:54;100704.00;;;15.30;100.00
58955;BME280;45815;52.334;5.024;2022-09-09T02:53:40;100699.59;;;15.31;100.00
58955;BME280;45815;52.334;5.024;2022-09-09T02:56:13;100694.31;;;15.28;100.00
58955;BME280;45815;52.334;5.024;2022-09-09T02:58:42;100697.84;;;15.25;100.00
58955;BME280;45815;52.334;5.024;2022-09-09T03:01:07;100689.06;;;15.25;100.00
58955;BME280;45815;52.334;5.024;2022-09-09T03:03:33;100691.69;;;15.29;100.00
58955;BME280;45815;52.334;5.024;2022-09-09T03:06:03;100696.06;;;15.29;100.00
58955;BME280;45815;52.334;5.024;2022-09-09T03:08:30;100696.97;;;15.29;100.00
58955;BME280;45815;52.334;5.024;2022-09-09T03:10:58;100696.09;;;15.27;100.00
58955;BME280;45815;52.334;5.024;2022-09-09T03:13:25;100689.03;;;15.28;100.00
58955;BME280;45815;52.334;5.024;2022-09-09T03:15:50;100694.31;;;15.29;100.00
58955;BME280;45815;52.334;5.024;2022-09-09T03:18:18;100685.50;;;15.29;100.00
58955;BME280;45815;52.334;5.024;2022-09-09T03:20:48;100683.72;;;15.31;100.00
58955;BME280;45815;52.334;5.024;2022-09-09T03:23:14;100679.34;;;15.31;100.00
58955;BME280;45815;52.334;5.024;2022-09-09T03:25:39;100690.78;;;15.35;100.00
58955;BME280;45815;52.334;5.024;2022-09-09T03:28:11;100687.22;;;15.37;100.00
58955;BME280;45815;52.334;5.024;2022-09-09T03:30:36;100688.13;;;15.39;100.00
58955;BME280;45815;52.334;5.024;2022-09-09T03:33:02;100688.13;;;15.39;100.00
58955;BME280;45815;52.334;5.024;2022-09-09T03:35:31;100683.69;;;15.40;100.00
58955;BME280;45815;52.334;5.024;2022-09-09T03:37:56;100691.66;;;15.38;100.00
58955;BME280;45815;52.334;5.024;2022-09-09T03:40:22;100682.84;;;15.36;100.00
58955;BME280;45815;52.334;5.024;2022-09-09T03:42:47;100679.31;;;15.34;100.00
58955;BME280;45815;52.334;5.024;2022-09-09T03:45:15;100682.84;;;15.33;100.00
58955;BME280;45815;52.334;5.024;2022-09-09T03:47:41;100676.66;;;15.33;100.00
58955;BME280;45815;52.334;5.024;2022-09-09T03:50:06;100671.41;;;15.31;100.00
58955;BME280;45815;52.334;5.024;2022-09-09T03:52:39;100678.47;;;15.29;100.00
58955;BME280;45815;52.334;5.024;2022-09-09T03:55:07;100685.50;;;15.29;100.00
58955;BME280;45815;52.334;5.024;2022-09-09T03:57:33;100672.31;;;15.24;100.00
58955;BME280;45815;52.334;5.024;2022-09-09T04:00:02;100684.63;;;15.24;100.00
58955;BME280;45815;52.334;5.024;2022-09-09T04:02:31;100677.59;;;15.21;100.00
58955;BME280;45815;52.334;5.024;2022-09-09T04:04:56;100676.72;;;15.22;100.00
58955;BME280;45815;52.334;5.024;2022-09-09T04:07:21;100665.28;;;15.20;100.00
58955;BME280;45815;52.334;5.024;2022-09-09T04:09:47;100668.78;;;15.20;100.00
58955;BME280;45815;52.334;5.024;2022-09-09T04:12:13;100655.56;;;15.14;100.00
58955;BME280;45815;52.334;5.024;2022-09-09T04:14:39;100663.53;;;15.07;100.00
58955;BME280;45815;52.334;5.024;2022-09-09T04:17:05;100663.53;;;15.01;100.00
58955;BME280;45815;52.334;5.024;2022-09-09T04:19:31;100663.53;;;15.01;100.00
58955;BME280;45815;52.334;5.024;2022-09-09T04:21:57;100667.09;;;14.96;100.00
58955;BME280;45815;52.334;5.024;2022-09-09T04:24:22;100669.72;;;14.95;100.00
58955;BME280;45815;52.334;5.024;2022-09-09T04:26:48;100658.28;;;14.94;100.00
58955;BME280;45815;52.334;5.024;2022-09-09T04:29:14;100665.31;;;14.94;100.00
58955;BME280;45815;52.334;5.024;2022-09-09T04:31:39;100659.13;;;14.93;100.00
58955;BME280;45815;52.334;5.024;2022-09-09T04:34:08;100658.25;;;14.99;100.00
58955;BME280;45815;52.334;5.024;2022-09-09T04:36:34;100652.09;;;14.98;100.00
58955;BME280;45815;52.334;5.024;2022-09-09T04:39:03;100648.56;;;14.95;100.00
58955;BME280;45815;52.334;5.024;2022-09-09T04:41:28;100645.94;;;14.93;100.00
58955;BME280;45815;52.334;5.024;2022-09-09T04:43:54;100647.72;;;14.91;100.00
58955;BME280;45815;52.334;5.024;2022-09-09T04:46:20;100638.91;;;14.92;100.00
58955;BME280;45815;52.334;5.024;2022-09-09T04:48:48;100640.66;;;14.92;100.00
58955;BME280;45815;52.334;5.024;2022-09-09T04:51:14;100649.47;;;14.91;100.00
58955;BME280;45815;52.334;5.024;2022-09-09T04:53:40;100645.94;;;14.90;100.00
58955;BME280;45815;52.334;5.024;2022-09-09T04:56:07;100644.19;;;14.86;100.00
58955;BME280;45815;52.334;5.024;2022-09-09T04:58:38;100652.13;;;14.85;100.00
58955;BME280;45815;52.334;5.024;2022-09-09T05:01:09;100645.06;;;14.84;100.00
58955;BME280;45815;52.334;5.024;2022-09-09T05:03:36;100640.66;;;14.81;100.00
58955;BME280;45815;52.334;5.024;2022-09-09T05:06:09;100645.94;;;14.81;100.00
58955;BME280;45815;52.334;5.024;2022-09-09T05:08:36;100643.31;;;14.81;100.00
58955;BME280;45815;52.334;5.024;2022-09-09T05:11:02;100645.09;;;14.82;100.00
58955;BME280;45815;52.334;5.024;2022-09-09T05:13:28;100644.19;;;14.78;100.00
58955;BME280;45815;52.334;5.024;2022-09-09T05:15:54;100643.31;;;14.80;100.00
58955;BME280;45815;52.334;5.024;2022-09-09T05:18:21;100641.56;;;14.80;100.00
58955;BME280;45815;52.334;5.024;2022-09-09T05:20:48;100642.44;;;14.79;100.00
58955;BME280;45815;52.334;5.024;2022-09-09T05:23:13;100641.56;;;14.78;100.00
58955;BME280;45815;52.334;5.024;2022-09-09T05:25:39;100638.91;;;14.83;100.00
58955;BME280;45815;52.334;5.024;2022-09-09T05:28:05;100640.66;;;14.89;100.00
58955;BME280;45815;52.334;5.024;2022-09-09T05:30:32;100645.06;;;14.90;100.00
58955;BME280;45815;52.334;5.024;2022-09-09T05:33:00;100647.72;;;14.87;100.00
58955;BME280;45815;52.334;5.024;2022-09-09T05:35:26;100647.72;;;14.85;100.00
58955;BME280;45815;52.334;5.024;2022-09-09T05:37:52;100644.19;;;14.88;100.00
58955;BME280;45815;52.334;5.024;2022-09-09T05:40:18;100634.50;;;14.90;100.00
58955;BME280;45815;52.334;5.024;2022-09-09T05:42:44;100638.00;;;14.89;100.00
58955;BME280;45815;52.334;5.024;2022-09-09T05:45:09;100638.00;;;14.93;100.00
58955;BME280;45815;52.334;5.024;2022-09-09T05:47:35;100630.06;;;14.93;100.00
58955;BME280;45815;52.334;5.024;2022-09-09T05:50:03;100626.53;;;14.96;100.00
58955;BME280;45815;52.334;5.024;2022-09-09T05:52:29;100638.88;;;14.95;100.00
58955;BME280;45815;52.334;5.024;2022-09-09T05:54:55;100639.75;;;14.93;100.00
58955;BME280;45815;52.334;5.024;2022-09-09T05:57:22;100646.84;;;14.89;100.00
58955;BME280;45815;52.334;5.024;2022-09-09T05:59:47;100639.75;;;14.93;100.00
58955;BME280;45815;52.334;5.024;2022-09-09T06:02:12;100642.41;;;14.94;100.00
58955;BME280;45815;52.334;5.024;2022-09-09T06:04:38;100644.19;;;14.98;100.00
58955;BME280;45815;52.334;5.024;2022-09-09T06:07:04;100637.97;;;15.03;100.00
58955;BME280;45815;52.334;5.024;2022-09-09T06:09:29;100636.22;;;15.05;100.00
58955;BME280;45815;52.334;5.024;2022-09-09T06:11:55;100640.59;;;15.12;100.00
58955;BME280;45815;52.334;5.024;2022-09-09T06:14:21;100645.88;;;15.18;100.00
58955;BME280;45815;52.334;5.024;2022-09-09T06:16:48;100639.72;;;15.17;100.00
58955;BME280;45815;52.334;5.024;2022-09-09T06:19:19;100645.88;;;15.24;100.00
58955;BME280;45815;52.334;5.024;2022-09-09T06:21:45;100643.19;;;15.30;100.00
58955;BME280;45815;52.334;5.024;2022-09-09T06:24:12;100649.34;;;15.38;100.00
58955;BME280;45815;52.334;5.024;2022-09-09T06:26:42;100649.31;;;15.45;100.00
58955;BME280;45815;52.334;5.024;2022-09-09T06:29:11;100644.88;;;15.53;100.00
58955;BME280;45815;52.334;5.024;2022-09-09T06:31:38;100650.13;;;15.59;100.00
58955;BME280;45815;52.334;5.024;2022-09-09T06:34:13;100657.13;;;15.66;100.00
58955;BME280;45815;52.334;5.024;2022-09-09T06:36:41;100646.56;;;15.69;100.00
58955;BME280;45815;52.334;5.024;2022-09-09T06:39:07;100645.69;;;15.70;100.00
58955;BME280;45815;52.334;5.024;2022-09-09T06:41:33;100636.84;;;15.74;100.00
58955;BME280;45815;52.334;5.024;2022-09-09T06:44:01;100645.63;;;15.82;100.00
58955;BME280;45815;52.334;5.024;2022-09-09T06:46:33;100651.78;;;15.86;100.00
58955;BME280;45815;52.334;5.024;2022-09-09T06:49:01;100645.59;;;15.89;100.00
58955;BME280;45815;52.334;5.024;2022-09-09T06:51:31;100642.91;;;15.93;100.00
58955;BME280;45815;52.334;5.024;2022-09-09T06:53:57;100646.44;;;15.97;100.00
58955;BME280;45815;52.334;5.024;2022-09-09T06:56:25;100645.50;;;16.04;100.00
58955;BME280;45815;52.334;5.024;2022-09-09T06:58:53;100647.19;;;16.14;100.00
58955;BME280;45815;52.334;5.024;2022-09-09T07:01:24;100641.88;;;16.19;100.00
58955;BME280;45815;52.334;5.024;2022-09-09T07:03:51;100640.94;;;16.28;100.00
58955;BME280;45815;52.334;5.024;2022-09-09T07:06:18;100643.53;;;16.32;100.00
58955;BME280;45815;52.334;5.024;2022-09-09T07:08:48;100633.81;;;16.31;100.00
58955;BME280;45815;52.334;5.024;2022-09-09T07:11:13;100625.81;;;16.42;100.00
58955;BME280;45815;52.334;5.024;2022-09-09T07:13:40;100628.34;;;16.53;100.00
58955;BME280;45815;52.334;5.024;2022-09-09T07:16:08;100634.47;;;16.59;100.00
58955;BME280;45815;52.334;5.024;2022-09-09T07:18:34;100630.00;;;16.64;100.00
58955;BME280;45815;52.334;5.024;2022-09-09T07:21:00;100625.56;;;16.68;100.00
58955;BME280;45815;52.334;5.024;2022-09-09T07:23:27;100619.44;;;16.61;100.00
58955;BME280;45815;52.334;5.024;2022-09-09T07:25:53;100630.88;;;16.66;100.00
58955;BME280;45815;52.334;5.024;2022-09-09T07:28:20;100624.69;;;16.66;100.00
58955;BME280;45815;52.334;5.024;2022-09-09T07:30:58;100629.03;;;16.75;100.00
58955;BME280;45815;52.334;5.024;2022-09-09T07:33:25;100626.38;;;16.73;100.00
58955;BME280;45815;52.334;5.024;2022-09-09T07:35:51;100626.44;;;16.72;100.00
58955;BME280;45815;52.334;5.024;2022-09-09T07:38:16;100627.25;;;16.74;100.00
58955;BME280;45815;52.334;5.024;2022-09-09T07:40:42;100635.25;;;16.72;100.00
58955;BME280;45815;52.334;5.024;2022-09-09T07:43:09;100628.16;;;16.74;100.00
58955;BME280;45815;52.334;5.024;2022-09-09T07:45:34;100632.50;;;16.78;100.00
58955;BME280;45815;52.334;5.024;2022-09-09T07:48:00;100624.59;;;16.75;100.00
58955;BME280;45815;52.334;5.024;2022-09-09T07:50:25;100629.91;;;16.75;100.00
58955;BME280;45815;52.334;5.024;2022-09-09T07:52:51;100631.59;;;16.88;100.00
58955;BME280;45815;52.334;5.024;2022-09-09T07:55:16;100628.84;;;16.95;100.00
58955;BME280;45815;52.334;5.024;2022-09-09T07:57:41;100626.19;;;16.96;100.00
58955;BME280;45815;52.334;5.024;2022-09-09T08:00:07;100626.19;;;16.96;100.00
58955;BME280;45815;52.334;5.024;2022-09-09T08:02:42;100626.16;;;16.99;100.00
58955;BME280;45815;52.334;5.024;2022-09-09T08:05:09;100630.53;;;17.02;100.00
58955;BME280;45815;52.334;5.024;2022-09-09T08:07:35;100626.13;;;17.02;100.00
58955;BME280;45815;52.334;5.024;2022-09-09T08:10:01;100627.00;;;17.04;100.00
58955;BME280;45815;52.334;5.024;2022-09-09T08:12:29;100621.56;;;17.17;100.00
58955;BME280;45815;52.334;5.024;2022-09-09T08:14:55;100624.13;;;17.23;100.00
58955;BME280;45815;52.334;5.024;2022-09-09T08:17:21;100624.13;;;17.23;100.00
58955;BME280;45815;52.334;5.024;2022-09-09T08:19:47;100624.09;;;17.26;100.00
58955;BME280;45815;52.334;5.024;2022-09-09T08:22:17;100616.84;;;17.39;100.00
58955;BME280;45815;52.334;5.024;2022-09-09T08:24:43;100613.09;;;17.55;100.00
58955;BME280;45815;52.334;5.024;2022-09-09T08:27:08;100613.84;;;17.65;100.00
58955;BME280;45815;52.334;5.024;2022-09-09T08:29:35;100612.75;;;17.83;100.00
58955;BME280;45815;52.334;5.024;2022-09-09T08:32:03;100617.81;;;18.00;100.00
58955;BME280;45815;52.334;5.024;2022-09-09T08:34:28;100603.53;;;18.07;100.00
58955;BME280;45815;52.334;5.024;2022-09-09T08:36:57;100609.47;;;18.24;100.00
58955;BME280;45815;52.334;5.024;2022-09-09T08:39:29;100616.00;;;18.56;100.00
58955;BME280;45815;52.334;5.024;2022-09-09T08:52:04;100622.41;;;18.44;100.00
58955;BME280;45815;52.334;5.024;2022-09-09T08:54:35;100634.97;;;18.36;100.00
58955;BME280;45815;52.334;5.024;2022-09-09T08:57:02;100621.91;;;18.22;100.00
58955;BME280;45815;52.334;5.024;2022-09-09T08:59:28;100630.97;;;18.07;100.00
58955;BME280;45815;52.334;5.024;2022-09-09T09:02:00;100630.22;;;17.98;100.00
58955;BME280;45815;52.334;5.024;2022-09-09T09:07:07;100630.34;;;17.90;100.00
58955;BME280;45815;52.334;5.024;2022-09-09T09:12:24;100624.22;;;17.86;100.00
58955;BME280;45815;52.334;5.024;2022-09-09T09:14:54;100638.31;;;17.91;100.00
58955;BME280;45815;52.334;5.024;2022-09-09T09:17:21;100641.91;;;17.87;100.00
58955;BME280;45815;52.334;5.024;2022-09-09T09:19:49;100633.06;;;17.87;100.00
58955;BME280;45815;52.334;5.024;2022-09-09T09:22:36;100638.25;;;17.95;100.00
58955;BME280;45815;52.334;5.024;2022-09-09T09:30:22;100638.03;;;18.10;100.00
58955;BME280;45815;52.334;5.024;2022-09-09T09:33:01;100631.81;;;18.11;100.00
58955;BME280;45815;52.334;5.024;2022-09-09T09:35:27;100641.69;;;18.03;100.00
58955;BME280;45815;52.334;5.024;2022-09-09T09:37:53;100640.00;;;17.96;100.00
58955;BME280;45815;52.334;5.024;2022-09-09T09:40:19;100641.91;;;17.86;100.00
58955;BME280;45815;52.334;5.024;2022-09-09T09:42:54;100640.91;;;17.96;100.00
58955;BME280;45815;52.334;5.024;2022-09-09T09:47:57;100644.41;;;17.98;100.00
58955;BME280;45815;52.334;5.024;2022-09-09T09:50:23;100643.66;;;17.88;100.00
58955;BME280;45815;52.334;5.024;2022-09-09T09:52:58;100644.50;;;17.92;100.00
58955;BME280;45815;52.334;5.024;2022-09-09T09:55:26;100639.19;;;17.92;100.00
58955;BME280;45815;52.334;5.024;2022-09-09T09:57:54;100639.91;;;18.02;100.00
58955;BME280;45815;52.334;5.024;2022-09-09T10:00:25;100645.16;;;18.08;100.00
58955;BME280;45815;52.334;5.024;2022-09-09T10:02:59;100632.66;;;18.13;100.00
58955;BME280;45815;52.334;5.024;2022-09-09T10:05:30;100635.19;;;18.22;100.00
58955;BME280;45815;52.334;5.024;2022-09-09T10:08:08;100629.09;;;18.14;100.00
58955;BME280;45815;52.334;5.024;2022-09-09T10:10:40;100633.56;;;18.12;100.00
58955;BME280;45815;52.334;5.024;2022-09-09T10:13:11;100634.38;;;18.17;100.00
58955;BME280;45815;52.334;5.024;2022-09-09T10:15:44;100637.91;;;18.19;100.00
58955;BME280;45815;52.334;5.024;2022-09-09T10:18:21;100628.09;;;18.23;100.00
58955;BME280;45815;52.334;5.024;2022-09-09T10:23:22;100629.44;;;18.48;100.00
58955;BME280;45815;52.334;5.024;2022-09-09T10:25:59;100627.47;;;18.60;100.00
58955;BME280;45815;52.334;5.024;2022-09-09T10:28:49;100619.25;;;18.73;100.00
58955;BME280;45815;52.334;5.024;2022-09-09T10:32:01;100628.00;;;18.82;100.00
58955;BME280;45815;52.334;5.024;2022-09-09T10:34:12;100615.69;;;18.73;100.00
58955;BME280;45815;52.334;5.024;2022-09-09T10:36:43;100625.63;;;18.65;100.00
58955;BME280;45815;52.334;5.024;2022-09-09T10:41:56;100632.97;;;18.49;100.00
58955;BME280;45815;52.334;5.024;2022-09-09T10:44:42;100635.63;;;18.49;100.00
58955;BME280;45815;52.334;5.024;2022-09-09T10:54:58;100616.22;;;19.40;100.00
58955;BME280;45815;52.334;5.024;2022-09-09T10:57:45;100620.66;;;19.41;100.00
58955;BME280;45815;52.334;5.024;2022-09-09T11:00:17;100609.63;;;19.58;100.00
58955;BME280;45815;52.334;5.024;2022-09-09T11:02:44;100605.66;;;19.77;100.00
58955;BME280;45815;52.334;5.024;2022-09-09T11:07:42;100616.78;;;19.96;100.00
58955;BME280;45815;52.334;5.024;2022-09-09T11:10:24;100597.25;;;19.96;100.00
58955;BME280;45815;52.334;5.024;2022-09-09T11:12:54;100618.75;;;19.88;100.00
58955;BME280;45815;52.334;5.024;2022-09-09T11:15:31;100613.66;;;19.77;100.00
58955;BME280;45815;52.334;5.024;2022-09-09T11:18:01;100604.19;;;19.63;100.00
58955;BME280;45815;52.334;5.024;2022-09-09T11:20:27;100606.88;;;19.63;100.00
58955;BME280;45815;52.334;5.024;2022-09-09T11:23:01;100610.88;;;19.40;100.00
58955;BME280;45815;52.334;5.024;2022-09-09T11:25:41;100611.84;;;19.36;100.00
58955;BME280;45815;52.334;5.024;2022-09-09T11:28:22;100615.69;;;19.23;100.00
58955;BME280;45815;52.334;5.024;2022-09-09T11:40:56;100616.16;;;18.98;100.00
58955;BME280;45815;52.334;5.024;2022-09-09T11:43:28;100613.81;;;18.83;100.00
58955;BME280;45815;52.334;5.024;2022-09-09T11:45:56;100615.56;;;18.84;100.00
58955;BME280;45815;52.334;5.024;2022-09-09T11:50:59;100623.88;;;18.64;100.00
58955;BME280;45815;52.334;5.024;2022-09-09T11:53:25;100632.59;;;18.70;100.00
58955;BME280;45815;52.334;5.024;2022-09-09T11:56:04;100636.09;;;18.74;100.00
58955;BME280;45815;52.334;5.024;2022-09-09T12:01:26;100624.28;;;18.90;100.00
58955;BME280;45815;52.334;5.024;2022-09-09T12:06:41;100633.91;;;18.97;100.00
58955;BME280;45815;52.334;5.024;2022-09-09T12:11:39;100651.16;;;18.73;100.00
58955;BME280;45815;52.334;5.024;2022-09-09T12:14:04;100649.47;;;18.69;100.00
58955;BME280;45815;52.334;5.024;2022-09-09T12:19:03;100659.63;;;18.97;100.00
58955;BME280;45815;52.334;5.024;2022-09-09T12:24:04;100649.88;;;18.96;100.00
58955;BME280;45815;52.334;5.024;2022-09-09T12:32:09;100631.34;;;18.93;100.00
58955;BME280;45815;52.334;5.024;2022-09-09T12:34:14;100631.34;;;19.38;100.00
58955;BME280;45815;52.334;5.024;2022-09-09T12:36:41;100631.66;;;19.65;100.00
58955;BME280;45815;52.334;5.024;2022-09-09T12:39:18;100623.22;;;19.44;100.00
58955;BME280;45815;52.334;5.024;2022-09-09T12:41:51;100624.09;;;19.45;100.00
58955;BME280;45815;52.334;5.024;2022-09-09T12:44:21;100610.09;;;19.36;100.00
58955;BME280;45815;52.334;5.024;2022-09-09T12:46:46;100616.09;;;19.46;100.00
58955;BME280;45815;52.334;5.024;2022-09-09T12:49:24;100622.34;;;19.44;100.00
58955;BME280;45815;52.334;5.024;2022-09-09T12:51:50;100610.28;;;19.27;100.00
58955;BME280;45815;52.334;5.024;2022-09-09T12:54:15;100614.06;;;19.15;100.00
58955;BME280;45815;52.334;5.024;2022-09-09T12:56:44;100620.47;;;19.05;100.00
58955;BME280;45815;52.334;5.024;2022-09-09T12:59:17;100633.91;;;18.97;100.00
58955;BME280;45815;52.334;5.024;2022-09-09T13:01:54;100634.28;;;18.74;100.00
58955;BME280;45815;52.334;5.024;2022-09-09T13:04:20;100628.97;;;18.76;100.00
58955;BME280;45815;52.334;5.024;2022-09-09T13:06:47;100634.38;;;18.71;100.00
58955;BME280;45815;52.334;5.024;2022-09-09T13:09:12;100632.59;;;18.70;100.00
58955;BME280;45815;52.334;5.024;2022-09-09T13:11:38;100633.50;;;18.69;100.00
58955;BME280;45815;52.334;5.024;2022-09-09T13:14:12;100635.31;;;18.67;100.00
58955;BME280;45815;52.334;5.024;2022-09-09T13:16:53;100638.34;;;18.46;100.00
58955;BME280;45815;52.334;5.024;2022-09-09T13:19:19;100640.06;;;18.48;100.00
58955;BME280;45815;52.334;5.024;2022-09-09T13:21:46;100646.41;;;18.40;100.00
58955;BME280;45815;52.334;5.024;2022-09-09T13:24:31;100649.19;;;18.32;100.00
58955;BME280;45815;52.334;5.024;2022-09-09T13:29:50;100651.25;;;18.14;100.00
58955;BME280;45815;52.334;5.024;2022-09-09T13:32:16;100639.91;;;18.02;100.00
58955;BME280;45815;52.334;5.024;2022-09-09T13:34:50;100649.78;;;17.93;100.00
58955;BME280;45815;52.334;5.024;2022-09-09T13:37:21;100651.69;;;17.79;100.00
58955;BME280;45815;52.334;5.024;2022-09-09T13:39:52;100654.41;;;17.76;100.00
58955;BME280;45815;52.334;5.024;2022-09-09T13:42:27;100652.59;;;17.83;100.00
58955;BME280;45815;52.334;5.024;2022-09-09T13:44:53;100660.47;;;17.89;100.00
58955;BME280;45815;52.334;5.024;2022-09-09T13:47:19;100652.38;;;17.97;100.00
58955;BME280;45815;52.334;5.024;2022-09-09T13:49:45;100660.34;;;17.98;100.00
58955;BME280;45815;52.334;5.024;2022-09-09T13:52:14;100655.19;;;17.86;100.00
58955;BME280;45815;52.334;5.024;2022-09-09T13:54:41;100652.34;;;18.00;100.00
58955;BME280;45815;52.334;5.024;2022-09-09T13:57:16;100651.25;;;18.13;100.00
58955;BME280;45815;52.334;5.024;2022-09-09T13:59:43;100654.59;;;18.26;100.00
58955;BME280;45815;52.334;5.024;2022-09-09T14:02:08;100653.78;;;18.22;100.00
58955;BME280;45815;52.334;5.024;2022-09-09T14:04:34;100648.31;;;18.31;100.00
58955;BME280;45815;52.334;5.024;2022-09-09T14:07:00;100655.34;;;18.35;100.00
58955;BME280;45815;52.334;5.024;2022-09-09T14:09:25;100647.47;;;18.31;100.00
58955;BME280;45815;52.334;5.024;2022-09-09T14:11:51;100650.97;;;18.31;100.00
58955;BME280;45815;52.334;5.024;2022-09-09T14:14:16;100647.34;;;18.37;100.00
58955;BME280;45815;52.334;5.024;2022-09-09T14:16:41;100654.38;;;18.40;100.00
58955;BME280;45815;52.334;5.024;2022-09-09T14:19:07;100632.25;;;18.39;100.00
58955;BME280;45815;52.334;5.024;2022-09-09T14:21:33;100640.28;;;18.34;100.00
58955;BME280;45815;52.334;5.024;2022-09-09T14:23:58;100635.06;;;18.30;100.00
58955;BME280;45815;52.334;5.024;2022-09-09T14:26:23;100635.97;;;18.29;100.00